createdAt,value
2018-03-02T00:01:29.658Z,15.17
2018-03-02T00:03:57.111Z,14.87
2018-03-02T00:06:24.554Z,11.83
2018-03-02T00:08:52.030Z,11.73
2018-03-02T00:11:19.474Z,13.67
2018-03-02T00:13:46.942Z,12.40
2018-03-02T00:16:14.383Z,11.80
2018-03-02T00:18:41.841Z,15.77
2018-03-02T00:21:09.316Z,13.73
2018-03-02T00:23:36.779Z,12.53
2018-03-02T00:26:04.229Z,13.40
2018-03-02T00:28:31.692Z,11.77
2018-03-02T00:30:59.147Z,14.97
2018-03-02T00:33:26.610Z,11.87
2018-03-02T00:35:54.053Z,12.20
2018-03-02T00:38:22.262Z,11.87
2018-03-02T00:40:49.712Z,12.80
2018-03-02T00:43:17.171Z,14.00
2018-03-02T00:45:44.635Z,11.60
2018-03-02T00:48:12.079Z,12.30
2018-03-02T00:50:40.285Z,17.67
2018-03-02T00:53:07.739Z,14.47
2018-03-02T00:55:35.173Z,12.10
2018-03-02T00:58:03.398Z,17.13
2018-03-02T01:00:30.869Z,14.77
2018-03-02T01:02:58.327Z,15.23
2018-03-02T01:05:25.808Z,14.27
2018-03-02T01:07:53.242Z,15.27
2018-03-02T01:10:20.695Z,14.50
2018-03-02T01:12:48.147Z,13.93
2018-03-02T01:15:15.614Z,12.50
2018-03-02T01:17:43.081Z,15.93
2018-03-02T01:20:10.526Z,17.70
2018-03-02T01:22:37.975Z,13.83
2018-03-02T01:25:06.197Z,13.67
2018-03-02T01:27:33.650Z,12.20
2018-03-02T01:30:01.168Z,16.33
2018-03-02T01:32:28.622Z,15.27
2018-03-02T01:34:56.084Z,19.43
2018-03-02T01:37:23.576Z,16.50
2018-03-02T01:39:51.001Z,15.47
2018-03-02T01:42:18.463Z,15.27
2018-03-02T01:44:45.919Z,13.17
2018-03-02T01:47:13.368Z,13.07
2018-03-02T01:49:40.826Z,13.53
2018-03-02T01:52:08.278Z,13.27
2018-03-02T01:54:35.782Z,15.90
2018-03-02T01:57:03.225Z,13.27
2018-03-02T01:59:30.689Z,17.57
2018-03-02T02:01:58.127Z,15.67
2018-03-02T02:04:25.595Z,13.73
2018-03-02T02:06:53.053Z,16.43
2018-03-02T02:09:20.493Z,17.50
2018-03-02T02:11:48.719Z,14.93
2018-03-02T02:14:16.174Z,17.90
2018-03-02T02:16:43.622Z,16.10
2018-03-02T02:19:11.066Z,15.27
2018-03-02T02:21:38.510Z,13.97
2018-03-02T02:24:06.726Z,13.53
2018-03-02T02:26:34.178Z,15.73
2018-03-02T02:29:01.614Z,16.83
2018-03-02T02:31:29.832Z,16.97
2018-03-02T02:33:57.309Z,17.47
2018-03-02T02:36:24.761Z,18.83
2018-03-02T02:38:52.221Z,17.57
2018-03-02T02:41:19.671Z,18.87
2018-03-02T02:43:47.904Z,16.63
2018-03-02T02:46:15.354Z,19.10
2018-03-02T02:48:43.587Z,18.47
2018-03-02T02:51:11.795Z,16.40
2018-03-02T02:53:39.254Z,15.63
2018-03-02T02:56:06.698Z,15.23
2018-03-02T02:58:34.146Z,14.17
2018-03-02T03:01:02.368Z,20.27
2018-03-02T03:03:29.814Z,19.87
2018-03-02T03:05:57.285Z,17.10
2018-03-02T03:08:24.713Z,17.17
2018-03-02T03:10:52.945Z,16.27
2018-03-02T03:13:20.405Z,18.53
2018-03-02T03:15:47.867Z,16.00
2018-03-02T03:18:15.359Z,19.57
2018-03-02T03:20:42.763Z,17.03
2018-03-02T03:23:10.198Z,18.70
2018-03-02T03:25:38.431Z,20.33
2018-03-02T03:28:05.873Z,19.17
2018-03-02T03:30:33.332Z,17.63
2018-03-02T03:33:00.789Z,18.27
2018-03-02T03:35:28.229Z,19.17
2018-03-02T03:37:56.451Z,21.43
2018-03-02T03:40:23.902Z,24.07
2018-03-02T03:42:51.373Z,17.90
2018-03-02T03:45:18.817Z,20.27
2018-03-02T03:47:46.297Z,22.03
2018-03-02T03:50:13.763Z,17.43
2018-03-02T03:52:41.247Z,19.67
2018-03-02T03:55:08.722Z,20.43
2018-03-02T03:57:36.914Z,22.03
2018-03-02T04:00:04.359Z,18.60
2018-03-02T04:02:31.810Z,19.80
2018-03-02T04:04:59.271Z,20.60
2018-03-02T04:07:26.727Z,19.37
2018-03-02T04:09:54.173Z,24.83
2018-03-02T04:12:21.640Z,23.27
2018-03-02T04:14:49.096Z,21.53
2018-03-02T04:17:16.587Z,21.73
2018-03-02T04:19:44.050Z,20.87
2018-03-02T04:22:11.504Z,23.93
2018-03-02T04:24:38.966Z,29.30
2018-03-02T04:27:06.423Z,21.43
2018-03-02T04:29:33.878Z,17.37
2018-03-02T04:32:01.328Z,23.57
2018-03-02T04:34:28.780Z,21.73
2018-03-02T04:36:57.005Z,25.10
2018-03-02T04:39:24.464Z,22.50
2018-03-02T04:41:51.919Z,22.70
2018-03-02T04:44:19.372Z,20.80
2018-03-02T04:46:46.844Z,21.87
2018-03-02T04:49:14.314Z,17.57
2018-03-02T04:51:41.765Z,22.03
2018-03-02T04:54:09.211Z,19.37
2018-03-02T04:56:36.646Z,20.87
2018-03-02T04:59:04.862Z,24.20
2018-03-02T05:01:32.326Z,24.97
2018-03-02T05:03:59.766Z,26.73
2018-03-02T05:06:27.228Z,24.13
2018-03-02T05:08:55.464Z,23.17
2018-03-02T05:11:22.919Z,24.27
2018-03-02T05:13:50.374Z,24.03
2018-03-02T05:16:17.829Z,21.80
2018-03-02T05:18:45.294Z,25.23
2018-03-02T05:21:12.752Z,31.33
2018-03-02T05:23:40.243Z,22.70
2018-03-02T05:26:07.710Z,25.20
2018-03-02T05:28:35.167Z,24.90
2018-03-02T05:31:02.632Z,24.63
2018-03-02T05:33:30.090Z,22.53
2018-03-02T05:35:57.567Z,24.70
2018-03-02T05:38:25.019Z,23.37
2018-03-02T05:40:52.694Z,24.67
2018-03-02T05:43:20.133Z,22.50
2018-03-02T05:45:47.591Z,25.53
2018-03-02T05:48:15.043Z,28.30
2018-03-02T05:50:42.512Z,24.00
2018-03-02T05:53:09.955Z,24.03
2018-03-02T05:55:37.425Z,26.60
2018-03-02T05:58:04.876Z,25.90
2018-03-02T06:00:32.318Z,25.70
2018-03-02T06:03:00.583Z,22.30
2018-03-02T06:05:28.027Z,21.03
2018-03-02T06:07:55.503Z,28.30
2018-03-02T06:10:22.956Z,27.37
2018-03-02T06:12:50.403Z,25.00
2018-03-02T06:15:17.859Z,32.37
2018-03-02T06:17:45.346Z,28.13
2018-03-02T06:20:12.798Z,27.40
2018-03-02T06:22:41.061Z,25.67
2018-03-02T06:25:08.511Z,28.53
2018-03-02T06:27:35.988Z,29.43
2018-03-02T06:30:03.475Z,24.77
2018-03-02T06:32:30.931Z,30.63
2018-03-02T06:34:58.418Z,27.60
2018-03-02T06:37:25.892Z,23.83
2018-03-02T06:39:53.367Z,27.47
2018-03-02T06:42:21.611Z,31.20
2018-03-02T06:44:49.085Z,27.30
2018-03-02T06:47:16.612Z,29.63
2018-03-02T06:49:44.006Z,29.27
2018-03-02T06:52:11.470Z,30.07
2018-03-02T06:54:38.930Z,30.43
2018-03-02T06:57:06.419Z,34.30
2018-03-02T06:59:34.666Z,25.10
2018-03-02T07:02:02.890Z,26.43
2018-03-02T07:04:31.116Z,27.40
2018-03-02T07:06:58.597Z,27.90
2018-03-02T07:09:26.072Z,28.30
2018-03-02T07:11:53.549Z,29.63
2018-03-02T07:14:21.792Z,30.03
2018-03-02T07:16:49.266Z,29.73
2018-03-02T07:19:16.734Z,32.57
2018-03-02T07:21:44.200Z,24.60
2018-03-02T07:24:11.667Z,32.50
2018-03-02T07:26:39.142Z,30.07
2018-03-02T07:29:07.368Z,26.03
2018-03-02T07:31:34.847Z,35.70
2018-03-02T07:34:02.307Z,29.20
2018-03-02T07:36:29.779Z,30.40
2018-03-02T07:38:57.259Z,33.97
2018-03-02T07:41:24.741Z,26.20
2018-03-02T07:43:52.963Z,29.87
2018-03-02T07:46:20.436Z,29.67
2018-03-02T07:48:48.693Z,30.27
2018-03-02T07:51:16.164Z,30.47
2018-03-02T07:53:43.627Z,31.97
2018-03-02T07:56:11.090Z,32.33
2018-03-02T07:58:38.588Z,28.70
2018-03-02T08:01:06.064Z,34.30
2018-03-02T08:03:33.532Z,32.93
2018-03-02T08:06:00.997Z,31.00
2018-03-02T08:08:28.459Z,32.37
2018-03-02T08:10:55.959Z,30.80
2018-03-02T08:13:23.449Z,29.80
2018-03-02T08:15:50.926Z,27.60
2018-03-02T08:18:18.395Z,28.27
2018-03-02T08:20:45.850Z,30.17
2018-03-02T08:23:13.341Z,31.40
2018-03-02T08:25:41.584Z,29.27
2018-03-02T08:28:09.126Z,24.73
2018-03-02T08:30:36.561Z,26.27
2018-03-02T08:33:04.791Z,26.57
2018-03-02T08:35:32.247Z,29.37
2018-03-02T08:37:59.697Z,31.97
2018-03-02T08:40:27.157Z,29.30
2018-03-02T08:42:54.651Z,28.10
2018-03-02T08:45:22.104Z,30.73
2018-03-02T08:47:49.577Z,28.77
2018-03-02T08:50:17.029Z,29.77
2018-03-02T08:52:44.492Z,27.60
2018-03-02T08:55:11.946Z,28.47
2018-03-02T08:57:39.426Z,30.30
2018-03-02T09:00:06.901Z,28.17
2018-03-02T09:02:34.351Z,25.40
2018-03-02T09:05:01.806Z,26.83
2018-03-02T09:07:29.251Z,28.43
2018-03-02T09:09:56.715Z,29.03
2018-03-02T09:12:24.166Z,25.30
2018-03-02T09:14:51.641Z,25.90
2018-03-02T09:17:19.107Z,26.93
2018-03-02T09:19:46.587Z,32.90
2018-03-02T09:22:14.047Z,28.60
2018-03-02T09:24:41.504Z,29.97
2018-03-02T09:27:08.947Z,26.70
2018-03-02T09:29:36.429Z,25.43
2018-03-02T09:32:03.878Z,26.90
2018-03-02T09:34:31.339Z,27.83
2018-03-02T09:36:58.797Z,35.90
2018-03-02T09:39:26.277Z,29.43
2018-03-02T09:41:53.747Z,32.50
2018-03-02T09:44:21.202Z,26.20
2018-03-02T09:46:48.670Z,29.67
2018-03-02T09:49:16.135Z,30.77
2018-03-02T09:51:43.594Z,31.70
2018-03-02T09:54:11.838Z,29.93
2018-03-02T09:56:40.052Z,34.90
2018-03-02T09:59:07.497Z,26.47
2018-03-02T10:01:34.983Z,29.03
2018-03-02T10:04:02.464Z,33.40
2018-03-02T10:06:29.924Z,29.37
2018-03-02T10:08:57.396Z,30.43
2018-03-02T10:11:24.855Z,31.53
2018-03-02T10:13:52.311Z,29.13
2018-03-02T10:16:19.780Z,32.53
2018-03-02T10:18:47.274Z,29.63
2018-03-02T10:21:15.517Z,30.03
2018-03-02T10:23:42.961Z,28.70
2018-03-02T10:26:10.427Z,32.23
2018-03-02T10:28:37.892Z,22.20
2018-03-02T10:31:05.352Z,29.47
2018-03-02T10:33:32.812Z,28.20
2018-03-02T10:36:00.277Z,32.33
2018-03-02T10:38:27.754Z,33.00
2018-03-02T10:40:55.207Z,31.13
2018-03-02T10:43:22.656Z,28.93
2018-03-02T10:45:50.108Z,28.83
2018-03-02T10:48:17.590Z,33.60
2018-03-02T10:50:45.047Z,28.60
2018-03-02T10:53:12.490Z,31.37
2018-03-02T10:55:39.960Z,30.97
2018-03-02T10:58:07.422Z,28.27
2018-03-02T11:00:40.487Z,23.87
2018-03-02T11:03:14.532Z,27.07
2018-03-02T11:05:45.935Z,26.43
2018-03-02T11:08:13.406Z,33.30
2018-03-02T11:10:41.617Z,27.53
2018-03-02T11:13:09.117Z,29.13
2018-03-02T11:15:36.578Z,28.67
2018-03-02T11:18:04.061Z,29.83
2018-03-02T11:20:31.509Z,30.67
2018-03-02T11:22:58.954Z,25.90
2018-03-02T11:25:26.420Z,32.63
2018-03-02T11:27:53.867Z,30.27
2018-03-02T11:30:21.366Z,28.40
2018-03-02T11:32:48.823Z,30.17
2018-03-02T11:35:16.280Z,32.40
2018-03-02T11:37:43.751Z,28.17
2018-03-02T11:40:11.230Z,32.33
2018-03-02T11:42:38.682Z,27.27
2018-03-02T11:45:06.148Z,29.33
2018-03-02T11:47:33.590Z,30.47
2018-03-02T11:50:01.050Z,31.27
2018-03-02T11:52:28.507Z,32.00
2018-03-02T11:54:55.963Z,32.23
2018-03-02T11:57:23.436Z,32.60
2018-03-02T11:59:51.661Z,29.67
2018-03-02T12:02:19.912Z,30.53
2018-03-02T12:04:47.376Z,29.70
2018-03-02T12:07:14.908Z,36.17
2018-03-02T12:09:42.365Z,28.77
2018-03-02T12:12:09.924Z,30.50
2018-03-02T12:14:37.370Z,28.10
2018-03-02T12:17:04.850Z,27.37
2018-03-02T12:19:32.312Z,29.80
2018-03-02T12:21:59.741Z,30.87
2018-03-02T12:24:27.984Z,30.47
2018-03-02T12:26:55.439Z,30.17
2018-03-02T12:29:22.894Z,34.00
2018-03-02T12:31:50.350Z,29.00
2018-03-02T12:34:17.812Z,28.93
2018-03-02T12:36:45.282Z,31.87
2018-03-02T12:39:12.731Z,26.10
2018-03-02T12:41:40.196Z,33.47
2018-03-02T12:44:07.657Z,36.50
2018-03-02T12:46:35.144Z,29.40
2018-03-02T12:49:02.609Z,31.77
2018-03-02T12:51:30.072Z,29.97
2018-03-02T12:53:57.780Z,29.63
2018-03-02T12:56:26.002Z,29.17
2018-03-02T12:58:53.487Z,29.40
2018-03-02T13:01:20.981Z,28.73
2018-03-02T13:03:49.224Z,36.80
2018-03-02T13:06:17.129Z,29.27
2018-03-02T13:08:44.588Z,29.90
2018-03-02T13:11:12.051Z,30.93
2018-03-02T13:13:39.515Z,31.83
2018-03-02T13:16:06.987Z,25.23
2018-03-02T13:18:42.274Z,32.67
2018-03-02T13:21:09.755Z,31.40
2018-03-02T13:23:37.221Z,34.17
2018-03-02T13:26:04.685Z,32.97
2018-03-02T13:28:43.970Z,31.27
2018-03-02T13:31:11.428Z,32.10
2018-03-02T13:33:51.499Z,33.17
2018-03-02T13:36:18.941Z,26.60
2018-03-02T13:38:47.190Z,31.67
2018-03-02T13:41:26.562Z,32.80
2018-03-02T13:43:54.045Z,32.23
2018-03-02T13:46:21.502Z,30.97
2018-03-02T13:49:09.790Z,35.00
2018-03-02T13:51:37.268Z,33.47
2018-03-02T13:54:04.767Z,34.77
2018-03-02T13:56:43.992Z,32.40
2018-03-02T13:59:11.436Z,36.20
2018-03-02T14:01:39.676Z,32.13
2018-03-02T14:04:18.941Z,27.57
2018-03-02T14:06:47.168Z,31.67
2018-03-02T14:09:14.625Z,29.73
2018-03-02T14:11:42.092Z,32.00
2018-03-02T14:14:09.543Z,35.20
2018-03-02T14:16:37.004Z,29.40
2018-03-02T14:19:04.467Z,32.20
2018-03-02T14:21:32.073Z,33.13
2018-03-02T14:23:59.514Z,33.80
2018-03-02T14:26:26.983Z,31.53
2018-03-02T14:28:54.439Z,34.43
2018-03-02T14:31:21.904Z,31.30
2018-03-02T14:33:49.342Z,28.00
2018-03-02T14:36:16.852Z,28.57
2018-03-02T14:38:44.290Z,31.47
2018-03-02T14:41:11.748Z,28.70
2018-03-02T14:43:39.198Z,29.13
2018-03-02T14:46:06.672Z,30.73
2018-03-02T14:48:34.137Z,34.90
2018-03-02T14:51:01.642Z,33.07
2018-03-02T14:53:29.107Z,28.17
2018-03-02T14:55:56.577Z,29.70
2018-03-02T14:58:24.039Z,35.83
2018-03-02T15:00:51.509Z,35.67
2018-03-02T15:03:19.718Z,30.53
2018-03-02T15:05:47.189Z,27.53
2018-03-02T15:08:14.652Z,30.63
2018-03-02T15:10:42.100Z,32.33
2018-03-02T15:13:09.556Z,33.57
2018-03-02T15:15:37.012Z,28.87
2018-03-02T15:18:05.234Z,29.07
2018-03-02T15:20:32.695Z,27.97
2018-03-02T15:23:00.184Z,30.47
2018-03-02T15:25:27.592Z,30.37
2018-03-02T15:27:55.044Z,29.03
2018-03-02T15:30:23.280Z,30.00
2018-03-02T15:32:50.755Z,31.20
2018-03-02T15:35:18.287Z,30.10
2018-03-02T15:37:45.748Z,28.60
2018-03-02T15:40:13.270Z,30.73
2018-03-02T15:42:41.516Z,30.60
2018-03-02T15:45:09.794Z,34.87
2018-03-02T15:47:37.265Z,30.00
2018-03-02T15:50:04.811Z,33.87
2018-03-02T15:52:32.270Z,35.33
2018-03-02T15:54:59.741Z,33.50
2018-03-02T15:57:27.189Z,30.37
2018-03-02T15:59:54.688Z,30.07
2018-03-02T16:02:22.160Z,30.20
2018-03-02T16:04:50.373Z,31.53
2018-03-02T16:07:17.867Z,30.23
2018-03-02T16:09:45.320Z,30.17
2018-03-02T16:12:12.798Z,31.40
2018-03-02T16:14:40.264Z,29.67
2018-03-02T16:17:07.710Z,28.63
2018-03-02T16:19:35.168Z,35.30
2018-03-02T16:22:02.635Z,30.90
2018-03-02T16:24:30.095Z,29.03
2018-03-02T16:26:57.555Z,30.60
2018-03-02T16:29:25.032Z,27.80
2018-03-02T16:31:52.485Z,28.37
2018-03-02T16:34:19.930Z,38.20
2018-03-02T16:36:47.400Z,30.87
2018-03-02T16:39:14.871Z,30.43
2018-03-02T16:41:42.342Z,29.23
2018-03-02T16:44:09.785Z,29.33
2018-03-02T16:46:37.235Z,26.43
2018-03-02T16:49:04.740Z,26.63
2018-03-02T16:51:32.479Z,29.87
2018-03-02T16:53:59.975Z,32.97
2018-03-02T16:56:28.177Z,29.70
2018-03-02T16:58:55.655Z,31.23
2018-03-02T17:01:23.897Z,29.87
2018-03-02T17:03:51.355Z,27.33
2018-03-02T17:06:18.843Z,26.17
2018-03-02T17:08:46.315Z,28.17
2018-03-02T17:11:13.771Z,28.43
2018-03-02T17:13:41.268Z,28.77
2018-03-02T17:16:08.730Z,32.77
2018-03-02T17:18:36.990Z,30.33
2018-03-02T17:21:05.226Z,29.40
2018-03-02T17:23:32.687Z,26.70
2018-03-02T17:26:00.152Z,28.37
2018-03-02T17:28:27.659Z,26.63
2018-03-02T17:30:55.098Z,29.00
2018-03-02T17:33:22.560Z,31.87
2018-03-02T17:35:50.039Z,29.37
2018-03-02T17:38:17.495Z,28.43
2018-03-02T17:40:44.970Z,29.50
2018-03-02T17:43:12.417Z,27.83
2018-03-02T17:45:39.881Z,30.23
2018-03-02T17:48:07.401Z,27.43
2018-03-02T17:50:34.864Z,28.80
2018-03-02T17:53:02.347Z,28.93
2018-03-02T17:55:29.831Z,28.63
2018-03-02T17:57:57.293Z,34.83
2018-03-02T18:00:24.741Z,33.30
2018-03-02T18:02:52.199Z,34.07
2018-03-02T18:05:20.428Z,30.30
2018-03-02T18:07:48.655Z,31.63
2018-03-02T18:10:16.128Z,32.27
2018-03-02T18:12:43.586Z,31.90
2018-03-02T18:15:11.067Z,30.23
2018-03-02T18:17:38.567Z,33.30
2018-03-02T18:20:06.948Z,31.70
2018-03-02T18:22:35.199Z,30.47
2018-03-02T18:25:02.678Z,31.40
2018-03-02T18:27:30.899Z,33.97
2018-03-02T18:29:58.380Z,36.20
2018-03-02T18:32:27.140Z,33.53
2018-03-02T18:34:54.614Z,31.53
2018-03-02T18:37:22.083Z,34.03
2018-03-02T18:39:49.563Z,36.43
2018-03-02T18:42:17.020Z,31.87
2018-03-02T18:44:44.462Z,32.73
2018-03-02T18:47:11.947Z,34.90
2018-03-02T18:49:39.406Z,32.90
2018-03-02T18:52:06.871Z,31.60
2018-03-02T18:54:34.333Z,33.90
2018-03-02T18:57:01.827Z,30.63
2018-03-02T18:59:29.286Z,30.93
2018-03-02T19:01:56.755Z,33.80
2018-03-02T19:04:24.231Z,33.40
2018-03-02T19:06:52.462Z,35.30
2018-03-02T19:09:19.933Z,33.67
2018-03-02T19:11:47.411Z,36.17
2018-03-02T19:14:14.873Z,33.80
2018-03-02T19:16:42.329Z,34.40
2018-03-02T19:19:09.798Z,33.00
2018-03-02T19:21:37.275Z,32.73
2018-03-02T19:24:04.791Z,39.70
2018-03-02T19:26:32.253Z,35.00
2018-03-02T19:28:59.724Z,40.47
2018-03-02T19:31:27.184Z,34.13
2018-03-02T19:33:54.658Z,33.50
2018-03-02T19:36:22.132Z,36.47
2018-03-02T19:38:49.879Z,34.30
2018-03-02T19:41:17.356Z,34.60
2018-03-02T19:43:45.108Z,35.63
2018-03-02T19:46:12.576Z,36.97
2018-03-02T19:48:40.054Z,38.33
2018-03-02T19:51:07.523Z,33.37
2018-03-02T19:53:34.980Z,36.13
2018-03-02T19:56:02.436Z,37.97
2018-03-02T19:58:29.897Z,40.47
2018-03-02T20:00:58.131Z,39.47
2018-03-02T20:03:26.363Z,41.57
2018-03-02T20:05:53.827Z,39.00
2018-03-02T20:08:21.295Z,36.90
2018-03-02T20:10:48.823Z,35.83
2018-03-02T20:13:16.313Z,37.57
2018-03-02T20:15:43.781Z,35.87
2018-03-02T20:18:11.247Z,40.33
2018-03-02T20:20:38.715Z,39.17
2018-03-02T20:23:06.190Z,37.03
2018-03-02T20:25:33.642Z,36.37
2018-03-02T20:28:01.106Z,38.97
2018-03-02T20:30:28.635Z,35.20
2018-03-02T20:32:56.072Z,36.03
2018-03-02T20:35:24.336Z,42.83
2018-03-02T20:37:51.791Z,36.80
2018-03-02T20:40:19.253Z,37.37
2018-03-02T20:42:46.731Z,45.97
2018-03-02T20:45:15.019Z,42.77
2018-03-02T20:47:43.259Z,37.83
2018-03-02T20:50:10.730Z,41.00
2018-03-02T20:52:38.198Z,44.47
2018-03-02T20:55:05.635Z,33.40
2018-03-02T20:57:33.106Z,39.43
2018-03-02T21:00:00.563Z,40.03
2018-03-02T21:02:28.018Z,37.60
2018-03-02T21:04:55.475Z,41.97
2018-03-02T21:07:22.939Z,40.93
2018-03-02T21:09:50.390Z,38.90
2018-03-02T21:12:17.850Z,42.07
2018-03-02T21:14:45.317Z,41.93
2018-03-02T21:17:12.770Z,45.63
2018-03-02T21:19:40.225Z,40.30
2018-03-02T21:22:07.706Z,45.13
2018-03-02T21:24:35.155Z,46.63
2018-03-02T21:27:02.630Z,43.53
2018-03-02T21:29:30.101Z,47.57
2018-03-02T21:31:57.559Z,43.07
2018-03-02T21:34:25.078Z,39.67
2018-03-02T21:36:52.498Z,42.40
2018-03-02T21:39:20.036Z,47.27
2018-03-02T21:41:47.441Z,43.43
2018-03-02T21:44:14.892Z,42.30
2018-03-02T21:46:42.375Z,38.87
2018-03-02T21:49:09.852Z,41.70
2018-03-02T21:51:37.307Z,43.13
2018-03-02T21:54:04.780Z,42.53
2018-03-02T21:56:32.255Z,43.93
2018-03-02T21:59:00.492Z,46.33
2018-03-02T22:01:27.939Z,47.37
2018-03-02T22:03:55.400Z,46.20
2018-03-02T22:06:24.032Z,42.67
2018-03-02T22:08:51.490Z,46.00
2018-03-02T22:11:18.980Z,46.83
2018-03-02T22:13:46.412Z,45.67
2018-03-02T22:16:13.882Z,48.07
2018-03-02T22:18:41.378Z,43.07
2018-03-02T22:21:08.823Z,44.50
2018-03-02T22:23:37.061Z,43.50
2018-03-02T22:26:04.541Z,44.20
2018-03-02T22:28:32.004Z,48.03
2018-03-02T22:30:59.462Z,42.07
2018-03-02T22:33:26.926Z,44.70
2018-03-02T22:35:54.410Z,45.53
2018-03-02T22:38:21.864Z,48.20
2018-03-02T22:40:49.335Z,45.70
2018-03-02T22:43:16.823Z,47.23
2018-03-02T22:45:45.765Z,50.30
2018-03-02T22:48:13.230Z,44.50
2018-03-02T22:50:40.696Z,48.77
2018-03-02T22:53:08.934Z,48.50
2018-03-02T22:55:36.381Z,54.23
2018-03-02T22:58:04.627Z,49.23
2018-03-02T23:00:32.106Z,47.13
2018-03-02T23:02:59.553Z,50.43
2018-03-02T23:05:27.010Z,55.37
2018-03-02T23:07:54.462Z,47.80
2018-03-02T23:10:21.927Z,50.17
2018-03-02T23:12:50.181Z,52.23
2018-03-02T23:15:17.669Z,48.67
2018-03-02T23:17:45.141Z,49.07
2018-03-02T23:20:12.598Z,48.73
2018-03-02T23:22:40.057Z,49.40
2018-03-02T23:25:07.517Z,48.93
2018-03-02T23:27:34.987Z,53.70
2018-03-02T23:30:02.431Z,50.40
2018-03-02T23:32:29.905Z,49.50
2018-03-02T23:34:57.388Z,51.73
2018-03-02T23:37:24.851Z,54.90
2018-03-02T23:39:52.310Z,49.67
2018-03-02T23:42:19.785Z,52.30
2018-03-02T23:44:47.233Z,51.00
2018-03-02T23:47:14.721Z,52.30
2018-03-02T23:49:42.955Z,57.57
2018-03-02T23:52:10.419Z,50.03
2018-03-02T23:54:37.898Z,66.37
2018-03-02T23:57:06.144Z,57.07
2018-03-02T23:59:33.595Z,53.47
